createdAt,value
2022-10-23T00:01:34.976Z,84.26
2022-10-23T00:04:16.132Z,84.31
2022-10-23T00:06:44.269Z,83.92
2022-10-23T00:09:13.422Z,83.92
2022-10-23T00:11:41.747Z,83.89
2022-10-23T00:14:09.327Z,84.01
2022-10-23T00:16:37.056Z,84.25
2022-10-23T00:19:04.430Z,84.24
2022-10-23T00:21:31.872Z,84.61
2022-10-23T00:23:59.174Z,84.50
2022-10-23T00:26:26.616Z,84.78
2022-10-23T00:28:54.711Z,84.65
2022-10-23T00:31:23.209Z,84.13
2022-10-23T00:33:51.140Z,84.00
2022-10-23T00:36:20.788Z,84.68
2022-10-23T00:38:48.673Z,84.47
2022-10-23T00:41:28.595Z,84.48
2022-10-23T00:44:30.519Z,84.50
2022-10-23T00:46:59.556Z,84.33
2022-10-23T00:49:28.426Z,84.34
2022-10-23T00:52:01.519Z,84.13
2022-10-23T00:54:32.678Z,84.30
2022-10-23T00:57:01.996Z,84.62
2022-10-23T00:59:29.677Z,84.58
2022-10-23T01:01:57.033Z,84.73
2022-10-23T01:04:25.523Z,84.43
2022-10-23T01:06:55.665Z,84.94
2022-10-23T01:09:26.567Z,84.97
2022-10-23T01:12:02.551Z,85.23
2022-10-23T01:14:38.098Z,85.42
2022-10-23T01:17:20.239Z,84.85
2022-10-23T01:20:13.346Z,84.87
2022-10-23T01:22:59.133Z,85.14
2022-10-23T01:25:29.216Z,85.19
2022-10-23T01:28:01.421Z,85.08
2022-10-23T01:30:29.391Z,84.96
2022-10-23T01:33:00.876Z,85.42
2022-10-23T01:35:32.417Z,84.97
2022-10-23T01:38:20.144Z,85.08
2022-10-23T01:41:03.013Z,84.84
2022-10-23T01:43:42.401Z,85.00
2022-10-23T01:46:14.339Z,85.31
2022-10-23T01:48:44.371Z,85.20
2022-10-23T01:51:14.164Z,84.98
2022-10-23T01:53:43.836Z,84.88
2022-10-23T01:56:13.402Z,84.97
2022-10-23T01:58:43.200Z,85.21
2022-10-23T02:01:11.778Z,85.35
2022-10-23T02:03:39.496Z,85.30
2022-10-23T02:06:07.016Z,85.20
2022-10-23T02:08:34.357Z,85.06
2022-10-23T02:11:14.638Z,84.98
2022-10-23T02:14:22.340Z,85.18
2022-10-23T02:16:54.865Z,85.29
2022-10-23T02:19:45.927Z,85.56
2022-10-23T02:22:37.475Z,85.60
2022-10-23T02:25:14.495Z,85.63
2022-10-23T02:27:48.187Z,85.57
2022-10-23T02:30:17.670Z,85.34
2022-10-23T02:32:50.604Z,85.57
2022-10-23T02:35:19.621Z,85.26
2022-10-23T02:37:57.905Z,85.19
2022-10-23T02:40:42.055Z,85.02
2022-10-23T02:43:14.578Z,85.28
2022-10-23T02:45:52.947Z,85.13
2022-10-23T02:48:29.716Z,85.36
2022-10-23T02:51:11.711Z,85.47
2022-10-23T02:53:44.933Z,85.40
2022-10-23T02:56:33.457Z,85.22
2022-10-23T02:59:11.278Z,85.43
2022-10-23T03:02:15.374Z,84.91
2022-10-23T03:04:42.990Z,85.15
2022-10-23T03:07:12.142Z,85.67
2022-10-23T03:09:39.515Z,85.32
2022-10-23T03:12:06.555Z,85.32
2022-10-23T03:14:33.586Z,85.27
2022-10-23T03:17:00.629Z,85.13
2022-10-23T03:19:27.729Z,85.09
2022-10-23T03:21:54.761Z,85.32
2022-10-23T03:24:21.816Z,85.55
2022-10-23T03:26:48.921Z,85.01
2022-10-23T03:29:16.118Z,85.71
2022-10-23T03:31:43.262Z,85.34
2022-10-23T03:34:11.489Z,85.34
2022-10-23T03:36:38.561Z,85.14
2022-10-23T03:39:05.686Z,85.10
2022-10-23T03:41:32.761Z,85.71
2022-10-23T03:44:00.040Z,85.56
2022-10-23T03:46:27.354Z,85.11
2022-10-23T03:48:56.780Z,85.25
2022-10-23T03:51:24.041Z,85.32
2022-10-23T03:53:51.151Z,85.38
2022-10-23T03:56:18.220Z,85.79
2022-10-23T03:58:45.591Z,85.78
2022-10-23T04:01:12.907Z,85.76
2022-10-23T04:03:39.998Z,85.44
2022-10-23T04:06:07.354Z,85.44
2022-10-23T04:08:34.452Z,85.54
2022-10-23T04:11:01.617Z,85.78
2022-10-23T04:13:28.649Z,85.37
2022-10-23T04:15:55.729Z,85.53
2022-10-23T04:18:22.783Z,86.01
2022-10-23T04:20:50.359Z,85.85
2022-10-23T04:23:17.733Z,85.74
2022-10-23T04:25:44.792Z,85.45
2022-10-23T04:28:11.970Z,85.25
2022-10-23T04:30:39.358Z,85.48
2022-10-23T04:33:06.419Z,85.50
2022-10-23T04:35:33.654Z,85.55
2022-10-23T04:38:00.722Z,85.96
2022-10-23T04:40:27.787Z,85.67
2022-10-23T04:42:54.838Z,85.83
2022-10-23T04:45:21.909Z,85.96
2022-10-23T04:47:48.972Z,85.41
2022-10-23T04:50:16.362Z,85.36
2022-10-23T04:52:43.816Z,85.50
2022-10-23T04:55:11.130Z,85.43
2022-10-23T04:57:38.243Z,85.50
2022-10-23T05:00:07.776Z,85.30
2022-10-23T05:02:34.846Z,85.31
2022-10-23T05:05:01.933Z,85.44
2022-10-23T05:07:28.992Z,85.33
2022-10-23T05:09:56.182Z,85.38
2022-10-23T05:12:25.478Z,85.33
2022-10-23T05:14:53.047Z,85.21
2022-10-23T05:17:33.290Z,85.28
2022-10-23T05:20:03.173Z,85.18
2022-10-23T05:22:32.992Z,85.66
2022-10-23T05:25:02.212Z,85.25
2022-10-23T05:27:29.312Z,85.16
2022-10-23T05:29:56.390Z,85.10
2022-10-23T05:32:25.702Z,85.55
2022-10-23T05:34:53.603Z,85.23
2022-10-23T05:37:21.044Z,85.34
2022-10-23T05:39:48.267Z,85.47
2022-10-23T05:42:15.520Z,85.55
2022-10-23T05:44:42.815Z,85.34
2022-10-23T05:47:09.996Z,85.37
2022-10-23T05:49:37.322Z,85.32
2022-10-23T05:52:04.660Z,85.34
2022-10-23T05:54:31.989Z,85.32
2022-10-23T05:56:59.219Z,85.85
2022-10-23T05:59:26.296Z,85.34
2022-10-23T06:01:53.396Z,85.62
2022-10-23T06:04:20.745Z,85.55
2022-10-23T06:06:47.813Z,85.79
2022-10-23T06:09:15.698Z,85.75
2022-10-23T06:11:43.318Z,85.36
2022-10-23T06:14:10.613Z,85.63
2022-10-23T06:16:37.714Z,85.54
2022-10-23T06:19:04.759Z,85.47
2022-10-23T06:21:31.781Z,85.67
2022-10-23T06:23:58.824Z,85.56
2022-10-23T06:26:26.307Z,85.46
2022-10-23T06:28:53.661Z,85.65
2022-10-23T06:31:23.749Z,85.83
2022-10-23T06:33:50.881Z,85.92
2022-10-23T06:36:17.896Z,85.56
2022-10-23T06:38:44.972Z,85.59
2022-10-23T06:41:20.416Z,86.15
2022-10-23T06:43:48.873Z,85.96
2022-10-23T06:46:16.629Z,85.49
2022-10-23T06:48:44.095Z,85.51
2022-10-23T06:51:13.423Z,85.08
2022-10-23T06:53:40.815Z,85.34
2022-10-23T06:56:08.509Z,85.59
2022-10-23T06:58:37.379Z,85.47
2022-10-23T07:01:07.207Z,85.69
2022-10-23T07:03:34.975Z,85.78
2022-10-23T07:06:06.494Z,85.73
2022-10-23T07:08:33.895Z,86.61
2022-10-23T07:11:05.564Z,86.64
2022-10-23T07:13:34.330Z,86.65
2022-10-23T07:16:27.592Z,86.88
2022-10-23T07:18:59.301Z,86.96
2022-10-23T07:21:31.162Z,86.82
2022-10-23T07:23:58.616Z,86.79
2022-10-23T07:26:25.696Z,86.97
2022-10-23T07:28:55.240Z,87.07
2022-10-23T07:31:25.771Z,86.72
2022-10-23T07:33:55.492Z,86.45
2022-10-23T07:36:22.683Z,86.39
2022-10-23T07:38:51.151Z,86.79
2022-10-23T07:41:18.479Z,87.01
2022-10-23T07:43:45.621Z,86.75
2022-10-23T07:46:12.808Z,86.31
2022-10-23T07:48:40.419Z,86.45
2022-10-23T07:51:11.870Z,86.30
2022-10-23T07:53:39.673Z,85.42
2022-10-23T07:56:21.343Z,85.82
2022-10-23T07:58:49.161Z,85.48
2022-10-23T08:01:26.006Z,85.14
2022-10-23T08:03:53.607Z,85.10
2022-10-23T08:06:20.895Z,85.43
2022-10-23T08:08:47.980Z,84.88
2022-10-23T08:11:16.118Z,84.38
2022-10-23T08:13:44.391Z,84.62
2022-10-23T08:16:11.967Z,84.11
2022-10-23T08:18:40.978Z,83.79
2022-10-23T08:21:08.432Z,84.12
2022-10-23T08:23:35.442Z,84.30
2022-10-23T08:26:05.296Z,83.87
2022-10-23T08:28:33.086Z,83.65
2022-10-23T08:31:10.547Z,82.83
2022-10-23T08:33:38.401Z,82.53
2022-10-23T08:36:06.274Z,81.97
2022-10-23T08:38:33.929Z,80.84
2022-10-23T08:41:02.719Z,80.74
2022-10-23T08:43:39.007Z,80.35
2022-10-23T08:46:14.582Z,79.83
2022-10-23T08:48:46.926Z,79.38
2022-10-23T08:51:26.566Z,78.42
2022-10-23T08:54:23.675Z,77.09
2022-10-23T08:56:58.712Z,76.86
2022-10-23T08:59:32.840Z,76.17
2022-10-23T09:02:22.412Z,76.14
2022-10-23T09:04:52.004Z,75.35
2022-10-23T09:07:48.060Z,74.53
2022-10-23T09:10:36.940Z,74.56
2022-10-23T09:13:26.649Z,73.81
2022-10-23T09:16:13.812Z,68.45
2022-10-23T09:18:41.968Z,70.47
2022-10-23T09:21:10.098Z,70.27
2022-10-23T09:23:37.891Z,68.76
2022-10-23T09:26:13.212Z,69.50
2022-10-23T09:28:57.521Z,70.98
2022-10-23T09:31:24.568Z,70.93
2022-10-23T09:34:01.463Z,70.86
2022-10-23T09:36:29.798Z,70.59
2022-10-23T09:38:59.027Z,69.71
2022-10-23T09:41:39.754Z,69.53
2022-10-23T09:44:29.729Z,70.17
2022-10-23T09:47:11.167Z,69.44
2022-10-23T09:49:40.424Z,69.58
2022-10-23T09:52:10.143Z,68.51
2022-10-23T09:54:39.664Z,68.39
2022-10-23T09:57:23.788Z,62.75
2022-10-23T09:59:56.167Z,65.23
2022-10-23T10:02:36.815Z,66.13
2022-10-23T10:05:24.006Z,64.64
2022-10-23T10:08:06.984Z,61.80
2022-10-23T10:10:41.120Z,62.71
2022-10-23T10:13:36.571Z,61.43
2022-10-23T10:16:09.209Z,61.20
2022-10-23T10:18:53.055Z,60.66
2022-10-23T10:21:57.871Z,58.14
2022-10-23T10:25:02.675Z,58.71
2022-10-23T10:28:03.680Z,58.36
2022-10-23T10:30:45.145Z,59.55
2022-10-23T10:33:21.539Z,59.70
2022-10-23T10:36:20.923Z,57.41
2022-10-23T10:38:50.715Z,58.95
2022-10-23T10:41:30.058Z,58.02
2022-10-23T10:44:22.459Z,51.71
2022-10-23T10:46:55.181Z,52.71
2022-10-23T10:49:46.878Z,51.05
2022-10-23T10:52:22.294Z,51.85
2022-10-23T10:55:17.226Z,50.19
2022-10-23T10:57:47.456Z,51.55
2022-10-23T11:00:23.408Z,50.94
2022-10-23T11:02:59.021Z,49.52
2022-10-23T11:05:33.236Z,48.32
2022-10-23T11:08:10.387Z,48.25
2022-10-23T11:10:41.781Z,48.50
2022-10-23T11:13:38.964Z,46.92
2022-10-23T11:16:13.265Z,49.01
2022-10-23T11:18:45.365Z,49.32
2022-10-23T11:21:35.049Z,51.22
2022-10-23T11:24:11.251Z,52.30
2022-10-23T11:26:56.127Z,52.34
2022-10-23T11:29:30.738Z,52.01
2022-10-23T11:32:20.695Z,51.06
2022-10-23T11:35:24.542Z,50.29
2022-10-23T11:38:16.167Z,50.80
2022-10-23T11:43:55.390Z,48.96
2022-10-23T11:46:25.466Z,50.41
2022-10-23T11:48:54.599Z,48.96
2022-10-23T11:51:33.473Z,49.41
2022-10-23T11:54:16.382Z,47.84
2022-10-23T11:57:10.905Z,49.02
2022-10-23T11:59:53.413Z,49.78
2022-10-23T12:02:38.069Z,49.99
2022-10-23T12:05:25.722Z,50.22
2022-10-23T12:07:57.907Z,51.46
2022-10-23T12:10:50.641Z,52.60
2022-10-23T12:13:50.195Z,53.40
2022-10-23T12:16:17.294Z,53.94
2022-10-23T12:19:18.531Z,54.70
2022-10-23T12:21:46.322Z,55.38
2022-10-23T12:24:34.777Z,55.23
2022-10-23T12:27:11.324Z,55.22
2022-10-23T12:30:09.959Z,54.94
2022-10-23T12:32:40.345Z,54.16
2022-10-23T12:35:19.761Z,53.91
2022-10-23T12:38:16.317Z,53.84
2022-10-23T12:40:51.649Z,54.41
2022-10-23T12:43:31.353Z,55.25
2022-10-23T12:46:04.582Z,55.55
2022-10-23T12:48:32.971Z,54.70
2022-10-23T12:51:00.017Z,54.71
2022-10-23T12:53:27.495Z,54.51
2022-10-23T12:56:01.433Z,54.00
2022-10-23T12:58:31.994Z,54.71
2022-10-23T13:01:02.030Z,54.25
2022-10-23T13:03:30.954Z,54.79
2022-10-23T13:05:58.852Z,54.38
2022-10-23T13:08:32.301Z,54.96
2022-10-23T13:10:59.851Z,55.16
2022-10-23T13:13:26.957Z,54.16
2022-10-23T13:15:54.036Z,54.48
2022-10-23T13:18:21.103Z,54.90
2022-10-23T13:20:51.195Z,55.00
2022-10-23T13:23:34.889Z,54.76
2022-10-23T13:26:21.481Z,55.80
2022-10-23T13:28:48.624Z,55.67
2022-10-23T13:31:15.621Z,55.37
2022-10-23T13:33:48.302Z,55.66
2022-10-23T13:36:15.317Z,55.30
2022-10-23T13:38:58.567Z,55.36
2022-10-23T13:41:27.044Z,55.56
2022-10-23T13:43:54.092Z,54.70
2022-10-23T13:46:23.713Z,55.59
2022-10-23T13:48:51.268Z,55.24
2022-10-23T13:51:23.408Z,55.67
2022-10-23T13:53:51.243Z,55.72
2022-10-23T13:56:20.578Z,55.91
2022-10-23T13:58:48.461Z,55.61
2022-10-23T14:01:33.805Z,56.07
2022-10-23T14:04:00.924Z,55.58
2022-10-23T14:06:27.984Z,56.31
2022-10-23T14:08:55.009Z,56.40
2022-10-23T14:11:22.660Z,56.39
2022-10-23T14:13:50.089Z,56.03
2022-10-23T14:16:19.239Z,56.02
2022-10-23T14:18:46.489Z,56.16
2022-10-23T14:21:15.774Z,56.33
2022-10-23T14:23:42.860Z,55.68
2022-10-23T14:26:11.853Z,55.12
2022-10-23T14:28:38.917Z,55.42
2022-10-23T14:31:07.884Z,55.48
2022-10-23T14:33:34.938Z,54.77
2022-10-23T14:36:01.993Z,55.53
2022-10-23T14:38:29.453Z,55.31
2022-10-23T14:40:56.537Z,55.92
2022-10-23T14:43:24.319Z,55.95
2022-10-23T14:45:51.666Z,55.48
2022-10-23T14:48:18.968Z,55.28
2022-10-23T14:50:48.396Z,55.63
2022-10-23T14:53:15.835Z,55.96
2022-10-23T14:55:42.917Z,55.90
2022-10-23T14:58:09.994Z,56.03
2022-10-23T15:00:37.051Z,56.42
2022-10-23T15:03:04.128Z,56.32
2022-10-23T15:05:31.325Z,56.36
2022-10-23T15:07:59.087Z,56.39
2022-10-23T15:10:26.158Z,56.43
2022-10-23T15:12:53.208Z,56.46
2022-10-23T15:15:20.277Z,56.94
2022-10-23T15:17:47.327Z,57.05
2022-10-23T15:20:14.450Z,56.85
2022-10-23T15:22:41.645Z,57.00
2022-10-23T15:25:09.181Z,57.25
2022-10-23T15:27:37.650Z,57.07
2022-10-23T15:30:05.082Z,57.09
2022-10-23T15:32:32.159Z,56.99
2022-10-23T15:35:00.074Z,57.31
2022-10-23T15:37:27.192Z,57.02
2022-10-23T15:39:57.194Z,57.32
2022-10-23T15:42:26.772Z,57.11
2022-10-23T15:44:54.056Z,57.58
2022-10-23T15:47:21.177Z,57.84
2022-10-23T15:49:48.398Z,57.64
2022-10-23T15:52:15.516Z,57.92
2022-10-23T15:54:42.587Z,57.89
2022-10-23T15:57:09.984Z,58.13
2022-10-23T15:59:37.045Z,58.00
2022-10-23T16:02:04.174Z,58.22
2022-10-23T16:04:31.422Z,58.01
2022-10-23T16:06:58.497Z,58.29
2022-10-23T16:09:25.701Z,58.53
2022-10-23T16:11:52.774Z,58.73
2022-10-23T16:14:20.009Z,58.74
2022-10-23T16:16:47.050Z,58.78
2022-10-23T16:19:14.267Z,58.81
2022-10-23T16:21:41.639Z,58.82
2022-10-23T16:24:09.016Z,59.21
2022-10-23T16:26:36.799Z,58.97
2022-10-23T16:29:06.519Z,59.48
2022-10-23T16:31:33.945Z,58.77
2022-10-23T16:34:01.549Z,58.69
2022-10-23T16:36:29.454Z,59.14
2022-10-23T16:38:56.546Z,59.44
2022-10-23T16:41:23.923Z,59.46
2022-10-23T16:43:51.098Z,59.82
2022-10-23T16:46:19.854Z,59.63
2022-10-23T16:48:47.641Z,59.38
2022-10-23T16:51:17.145Z,59.44
2022-10-23T16:53:45.042Z,59.64
2022-10-23T16:56:15.271Z,59.40
2022-10-23T16:58:42.988Z,59.10
2022-10-23T17:01:19.872Z,59.13
2022-10-23T17:03:49.142Z,58.44
2022-10-23T17:06:20.667Z,57.95
2022-10-23T17:08:48.077Z,57.58
2022-10-23T17:11:21.355Z,57.73
2022-10-23T17:13:55.169Z,57.81
2022-10-23T17:16:35.339Z,58.29
2022-10-23T17:19:08.353Z,58.38
2022-10-23T17:21:40.217Z,59.33
2022-10-23T17:24:08.069Z,59.31
2022-10-23T17:26:35.664Z,59.57
2022-10-23T17:29:05.824Z,57.59
2022-10-23T17:31:34.824Z,57.37
2022-10-23T17:34:04.902Z,58.21
2022-10-23T17:36:34.943Z,57.67
2022-10-23T17:39:04.623Z,57.69
2022-10-23T17:41:32.148Z,56.89
2022-10-23T17:43:59.885Z,56.86
2022-10-23T17:46:27.615Z,57.04
2022-10-23T17:48:57.688Z,56.84
2022-10-23T17:51:27.342Z,56.81
2022-10-23T17:53:56.104Z,57.06
2022-10-23T17:56:27.164Z,57.44
2022-10-23T17:58:56.586Z,57.53
2022-10-23T18:01:25.309Z,57.75
2022-10-23T18:03:53.448Z,58.15
2022-10-23T18:06:25.846Z,58.30
2022-10-23T18:08:56.488Z,58.41
2022-10-23T18:11:30.024Z,58.44
2022-10-23T18:16:30.510Z,58.67
2022-10-23T18:18:59.774Z,58.72
2022-10-23T18:21:26.911Z,58.83
2022-10-23T18:23:54.232Z,59.05
2022-10-23T18:26:26.504Z,58.67
2022-10-23T18:28:59.204Z,58.89
2022-10-23T18:31:29.640Z,59.17
2022-10-23T18:33:58.468Z,59.11
2022-10-23T18:36:27.923Z,59.13
2022-10-23T18:41:28.081Z,59.54
2022-10-23T18:43:55.149Z,58.99
2022-10-23T18:46:22.328Z,59.29
2022-10-23T18:48:52.680Z,59.22
2022-10-23T18:51:28.445Z,59.30
2022-10-23T18:53:55.915Z,59.58
2022-10-23T18:56:26.096Z,59.42
2022-10-23T19:01:31.044Z,59.53
2022-10-23T19:03:59.487Z,59.58
2022-10-23T19:06:27.667Z,59.40
2022-10-23T19:08:55.740Z,58.98
2022-10-23T19:11:24.009Z,59.28
2022-10-23T19:13:51.117Z,59.01
2022-10-23T19:16:28.076Z,58.92
2022-10-23T19:18:59.576Z,58.65
2022-10-23T19:21:31.474Z,58.43
2022-10-23T19:24:02.311Z,58.48
2022-10-23T19:26:30.826Z,58.25
2022-10-23T19:28:58.117Z,58.58
2022-10-23T19:31:28.065Z,57.93
2022-10-23T19:33:55.137Z,57.70
2022-10-23T19:36:23.444Z,58.33
2022-10-23T19:38:51.109Z,58.46
2022-10-23T19:41:18.889Z,57.76
2022-10-23T19:43:46.142Z,58.13
2022-10-23T19:46:13.214Z,58.44
2022-10-23T19:48:44.432Z,58.68
2022-10-23T19:51:15.349Z,58.87
2022-10-23T19:53:42.884Z,58.39
2022-10-23T19:56:11.755Z,58.79
2022-10-23T19:58:39.094Z,58.78
2022-10-23T20:01:07.978Z,59.11
2022-10-23T20:03:35.088Z,58.74
2022-10-23T20:06:02.199Z,58.88
2022-10-23T20:08:32.682Z,59.05
2022-10-23T20:11:02.113Z,59.01
2022-10-23T20:13:29.176Z,58.74
2022-10-23T20:15:56.365Z,58.40
2022-10-23T20:18:23.470Z,58.32
2022-10-23T20:20:50.510Z,57.91
2022-10-23T20:23:17.617Z,58.27
2022-10-23T20:25:44.708Z,58.22
2022-10-23T20:28:14.426Z,58.31
2022-10-23T20:30:44.011Z,58.79
2022-10-23T20:33:11.673Z,59.05
2022-10-23T20:35:43.005Z,59.91
2022-10-23T20:38:10.184Z,60.51
2022-10-23T20:40:37.569Z,61.09
2022-10-23T20:43:04.768Z,59.77
2022-10-23T20:45:32.003Z,59.67
2022-10-23T20:47:59.088Z,60.39
2022-10-23T20:50:26.139Z,60.18
2022-10-23T20:52:53.219Z,61.44
2022-10-23T20:55:20.297Z,62.63
2022-10-23T20:57:47.564Z,64.72
2022-10-23T21:00:15.593Z,65.31
2022-10-23T21:02:45.778Z,66.13
2022-10-23T21:05:14.354Z,66.92
2022-10-23T21:07:41.381Z,68.46
2022-10-23T21:10:08.712Z,69.59
2022-10-23T21:12:35.772Z,69.37
2022-10-23T21:15:02.847Z,70.02
2022-10-23T21:17:35.213Z,71.42
2022-10-23T21:20:02.769Z,71.10
2022-10-23T21:22:30.009Z,71.85
2022-10-23T21:24:58.407Z,72.02
2022-10-23T21:27:25.886Z,72.80
2022-10-23T21:29:52.969Z,73.04
2022-10-23T21:32:20.831Z,73.71
2022-10-23T21:34:47.956Z,74.52
2022-10-23T21:37:15.402Z,74.62
2022-10-23T21:39:43.470Z,74.35
2022-10-23T21:42:12.125Z,75.14
2022-10-23T21:44:39.464Z,75.10
2022-10-23T21:47:07.011Z,75.18
2022-10-23T21:49:34.113Z,75.79
2022-10-23T21:52:01.179Z,76.74
2022-10-23T21:54:28.276Z,76.48
2022-10-23T21:56:55.418Z,76.96
2022-10-23T21:59:28.896Z,77.72
2022-10-23T22:01:58.846Z,78.10
2022-10-23T22:04:26.083Z,77.95
2022-10-23T22:06:53.591Z,78.30
2022-10-23T22:09:21.523Z,78.67
2022-10-23T22:11:50.161Z,78.19
2022-10-23T22:14:17.498Z,78.89
2022-10-23T22:16:44.606Z,78.89
2022-10-23T22:19:13.486Z,79.29
2022-10-23T22:21:41.166Z,79.30
2022-10-23T22:24:09.081Z,80.30
2022-10-23T22:26:38.842Z,79.66
2022-10-23T22:29:08.720Z,80.49
2022-10-23T22:31:36.373Z,79.82
2022-10-23T22:34:18.717Z,80.55
2022-10-23T22:36:56.157Z,80.66
2022-10-23T22:39:23.418Z,80.49
2022-10-23T22:41:50.718Z,80.07
2022-10-23T22:44:18.490Z,80.06
2022-10-23T22:46:46.499Z,80.13
2022-10-23T22:49:13.584Z,80.21
2022-10-23T22:51:40.882Z,80.08
2022-10-23T22:54:08.021Z,79.79
2022-10-23T22:56:35.511Z,80.03
2022-10-23T22:59:03.310Z,79.76
2022-10-23T23:01:45.721Z,80.05
2022-10-23T23:04:36.874Z,79.47
2022-10-23T23:07:09.646Z,79.57
2022-10-23T23:09:39.023Z,79.42
2022-10-23T23:12:08.647Z,79.41
2022-10-23T23:14:36.641Z,79.24
2022-10-23T23:17:05.545Z,79.95
2022-10-23T23:19:32.688Z,80.25
2022-10-23T23:22:00.350Z,80.17
2022-10-23T23:24:27.578Z,80.49
2022-10-23T23:26:54.656Z,80.84
2022-10-23T23:29:21.875Z,81.38
2022-10-23T23:31:48.936Z,80.14
2022-10-23T23:34:16.002Z,79.26
2022-10-23T23:36:43.119Z,78.29
2022-10-23T23:39:10.346Z,78.03
2022-10-23T23:41:37.630Z,76.12
2022-10-23T23:44:05.337Z,75.36
2022-10-23T23:46:32.847Z,72.92
2022-10-23T23:49:00.018Z,72.63
2022-10-23T23:51:27.151Z,71.23
2022-10-23T23:53:54.377Z,70.30
2022-10-23T23:56:21.960Z,69.33
2022-10-23T23:58:50.923Z,69.60
